createdAt,value
2022-08-11T00:00:43.182Z,101807.56
2022-08-11T00:03:15.633Z,101800.53
2022-08-11T00:05:57.518Z,101793.50
2022-08-11T00:08:33.359Z,101768.09
2022-08-11T00:11:08.545Z,101802.50
2022-08-11T00:13:45.269Z,101793.78
2022-08-11T00:16:24.751Z,101795.66
2022-08-11T00:18:58.940Z,101802.78
2022-08-11T00:21:54.571Z,101771.91
2022-08-11T00:24:24.157Z,101770.22
2022-08-11T00:26:55.577Z,101794.00
2022-08-11T00:29:27.350Z,101801.03
2022-08-11T00:32:01.907Z,101796.63
2022-08-11T00:34:36.186Z,101806.56
2022-08-11T00:37:10.004Z,101786.28
2022-08-11T00:39:48.920Z,101761.81
2022-08-11T00:42:48.251Z,101798.94
2022-08-11T00:45:32.440Z,101804.44
2022-08-11T00:48:19.746Z,101801.81
2022-08-11T00:51:05.152Z,101801.03
2022-08-11T00:54:14.066Z,101801.91
2022-08-11T00:57:36.121Z,101795.75
2022-08-11T01:00:24.394Z,101793.53
2022-08-11T01:03:22.013Z,101805.03
2022-08-11T01:06:18.271Z,101813.22
2022-08-11T01:09:22.463Z,101806.28
2022-08-11T01:12:09.577Z,101813.59
2022-08-11T01:15:15.042Z,101802.94
2022-08-11T01:18:14.439Z,101800.34
2022-08-11T01:21:07.766Z,101804.94
2022-08-11T01:24:19.559Z,101807.75
2022-08-11T01:27:19.349Z,101802.50
2022-08-11T01:30:10.178Z,101814.22
2022-08-11T01:33:13.021Z,101805.44
2022-08-11T01:36:20.656Z,101817.03
2022-08-11T01:39:31.758Z,101823.41
2022-08-11T01:42:55.829Z,101813.69
2022-08-11T01:45:39.001Z,101824.53
2022-08-11T01:48:30.762Z,101813.81
2022-08-11T01:51:18.411Z,101801.53
2022-08-11T01:54:09.872Z,101810.25
2022-08-11T01:57:08.010Z,101804.00
2022-08-11T01:59:48.689Z,101803.13
2022-08-11T02:02:47.537Z,101805.84
2022-08-11T02:05:37.250Z,101797.88
2022-08-11T02:08:33.507Z,101782.13
2022-08-11T02:11:35.063Z,101808.78
2022-08-11T02:14:12.995Z,101806.19
2022-08-11T02:17:15.474Z,101804.47
2022-08-11T02:20:16.597Z,101804.59
2022-08-11T02:24:05.099Z,101801.16
2022-08-11T02:26:44.316Z,101799.47
2022-08-11T02:29:46.832Z,101788.91
2022-08-11T02:32:48.008Z,101802.28
2022-08-11T02:35:32.796Z,101797.03
2022-08-11T02:38:28.349Z,101797.97
2022-08-11T02:41:32.072Z,101799.81
2022-08-11T02:44:34.521Z,101795.41
2022-08-11T02:47:17.989Z,101801.72
2022-08-11T02:50:07.001Z,101799.09
2022-08-11T02:53:06.745Z,101794.69
2022-08-11T02:55:58.362Z,101793.84
2022-08-11T02:59:08.798Z,101797.41
2022-08-11T03:01:53.060Z,101803.72
2022-08-11T03:04:51.297Z,101801.09
2022-08-11T03:07:34.723Z,101795.75
2022-08-11T03:10:44.757Z,101797.59
2022-08-11T03:13:50.161Z,101799.56
2022-08-11T03:16:48.428Z,101788.13
2022-08-11T03:19:41.664Z,101800.53
2022-08-11T03:22:22.126Z,101799.69
2022-08-11T03:25:16.285Z,101796.97
2022-08-11T03:28:04.217Z,101779.22
2022-08-11T03:31:01.766Z,101793.31
2022-08-11T03:34:06.694Z,101797.75
2022-08-11T03:37:16.897Z,101794.19
2022-08-11T03:40:38.480Z,101787.06
2022-08-11T03:43:32.866Z,101797.88
2022-08-11T03:46:09.110Z,101795.19
2022-08-11T03:48:57.138Z,101779.47
2022-08-11T03:51:51.970Z,101795.31
2022-08-11T03:54:39.914Z,101797.16
2022-08-11T03:57:23.718Z,101797.22
2022-08-11T04:00:19.481Z,101793.72
2022-08-11T04:02:50.773Z,101803.59
2022-08-11T04:06:11.800Z,101797.31
2022-08-11T04:09:07.928Z,101795.50
2022-08-11T04:12:36.494Z,101795.47
2022-08-11T04:15:55.841Z,101799.00
2022-08-11T04:18:33.219Z,101797.16
2022-08-11T04:21:26.707Z,101798.88
2022-08-11T04:24:39.784Z,101795.19
2022-08-11T04:27:52.695Z,101791.56
2022-08-11T04:31:01.206Z,101794.25
2022-08-11T04:33:53.818Z,101789.84
2022-08-11T04:37:01.965Z,101801.19
2022-08-11T04:39:55.592Z,101806.50
2022-08-11T04:42:54.998Z,101806.38
2022-08-11T04:45:40.492Z,101804.50
2022-08-11T04:48:46.688Z,101795.56
2022-08-11T04:51:43.062Z,101799.69
2022-08-11T04:54:50.524Z,101786.44
2022-08-11T04:58:00.820Z,101801.06
2022-08-11T05:01:22.112Z,101793.94
2022-08-11T05:04:40.158Z,101804.25
2022-08-11T05:07:27.867Z,101809.38
2022-08-11T05:10:19.675Z,101798.53
2022-08-11T05:13:20.717Z,101801.81
2022-08-11T05:16:14.241Z,101803.25
2022-08-11T05:19:10.031Z,101794.88
2022-08-11T05:22:04.414Z,101799.94
2022-08-11T05:25:02.383Z,101802.25
2022-08-11T05:28:04.115Z,101794.78
2022-08-11T05:30:54.947Z,101804.22
2022-08-11T05:34:15.765Z,101806.47
2022-08-11T05:36:52.073Z,101807.88
2022-08-11T05:39:45.266Z,101808.41
2022-08-11T05:42:37.931Z,101806.22
2022-08-11T05:46:03.430Z,101784.50
2022-08-11T05:48:54.786Z,101808.84
2022-08-11T05:51:55.438Z,101805.72
2022-08-11T05:54:47.466Z,101809.81
2022-08-11T05:57:48.345Z,101806.66
2022-08-11T06:00:19.301Z,101807.03
2022-08-11T06:02:57.592Z,101807.44
2022-08-11T06:05:44.055Z,101809.56
2022-08-11T06:08:15.949Z,101810.94
2022-08-11T06:10:47.604Z,101816.75
2022-08-11T06:13:21.356Z,101809.13
2022-08-11T06:15:55.826Z,101812.34
2022-08-11T06:18:29.571Z,101810.03
2022-08-11T06:21:01.411Z,101816.41
2022-08-11T06:23:33.596Z,101815.78
2022-08-11T06:26:13.794Z,101821.75
2022-08-11T06:28:47.134Z,101815.97
2022-08-11T06:31:25.029Z,101821.16
2022-08-11T06:34:27.318Z,101821.81
2022-08-11T06:37:18.436Z,101821.34
2022-08-11T06:40:01.299Z,101827.22
2022-08-11T06:42:43.653Z,101828.75
2022-08-11T06:45:34.436Z,101830.59
2022-08-11T06:48:11.041Z,101827.31
2022-08-11T06:51:08.626Z,101826.84
2022-08-11T06:54:03.465Z,101828.25
2022-08-11T06:57:26.412Z,101817.31
2022-08-11T07:00:07.465Z,101813.50
2022-08-11T07:03:03.169Z,101818.06
2022-08-11T07:05:37.492Z,101819.63
2022-08-11T07:08:49.254Z,101819.16
2022-08-11T07:11:48.581Z,101825.53
2022-08-11T07:14:45.616Z,101817.19
2022-08-11T07:17:21.337Z,101823.81
2022-08-11T07:20:15.917Z,101826.00
2022-08-11T07:23:15.902Z,101819.59
2022-08-11T07:26:11.301Z,101815.13
2022-08-11T07:28:55.895Z,101820.69
2022-08-11T07:31:50.453Z,101830.56
2022-08-11T07:34:28.079Z,101821.56
2022-08-11T07:37:04.308Z,101821.28
2022-08-11T07:39:37.857Z,101826.09
2022-08-11T07:42:12.669Z,101826.91
2022-08-11T07:45:05.705Z,101828.81
2022-08-11T07:47:56.661Z,101833.34
2022-08-11T07:50:46.774Z,101828.72
2022-08-11T07:53:19.019Z,101836.06
2022-08-11T07:55:54.894Z,101828.03
2022-08-11T07:58:53.197Z,101826.09
2022-08-11T08:01:44.915Z,101835.28
2022-08-11T08:04:36.945Z,101817.41
2022-08-11T08:07:27.071Z,101830.50
2022-08-11T08:10:18.372Z,101833.59
2022-08-11T08:13:08.805Z,101838.38
2022-08-11T08:16:00.179Z,101833.28
2022-08-11T08:18:35.889Z,101829.88
2022-08-11T08:21:14.687Z,101827.50
2022-08-11T08:23:47.492Z,101825.13
2022-08-11T08:26:48.299Z,101827.59
2022-08-11T08:29:42.035Z,101836.25
2022-08-11T08:32:16.276Z,101827.81
2022-08-11T08:34:51.138Z,101826.09
2022-08-11T08:37:46.240Z,101830.09
2022-08-11T08:40:16.052Z,101837.72
2022-08-11T08:42:55.120Z,101830.88
2022-08-11T08:45:27.349Z,101832.25
2022-08-11T08:48:02.354Z,101821.94
2022-08-11T08:50:56.144Z,101817.59
2022-08-11T08:53:32.942Z,101819.84
2022-08-11T08:56:07.332Z,101814.38
2022-08-11T08:58:41.512Z,101819.47
2022-08-11T09:01:15.258Z,101812.75
2022-08-11T09:04:07.019Z,101829.91
2022-08-11T09:06:40.058Z,101817.34
2022-08-11T09:09:12.296Z,101819.72
2022-08-11T09:11:50.675Z,101794.84
2022-08-11T09:14:53.984Z,101811.50
2022-08-11T09:17:27.528Z,101802.81
2022-08-11T09:20:29.196Z,101773.31
2022-08-11T09:24:07.328Z,101807.66
2022-08-11T09:26:33.695Z,101795.59
2022-08-11T09:29:05.846Z,101802.13
2022-08-11T09:31:40.335Z,101803.50
2022-08-11T09:34:14.355Z,101800.50
2022-08-11T09:37:04.954Z,101797.28
2022-08-11T09:39:57.591Z,101787.31
2022-08-11T09:42:49.213Z,101791.28
2022-08-11T09:45:20.842Z,101782.81
2022-08-11T09:47:52.623Z,101776.34
2022-08-11T09:50:24.472Z,101786.78
2022-08-11T09:53:36.611Z,101753.31
2022-08-11T09:55:48.236Z,101761.91
2022-08-11T09:58:41.555Z,101769.34
2022-08-11T10:01:27.435Z,101769.56
2022-08-11T10:04:05.637Z,101757.59
2022-08-11T10:06:57.857Z,101749.44
2022-08-11T10:10:08.539Z,101756.28
2022-08-11T10:12:46.518Z,101745.84
2022-08-11T10:15:35.183Z,101752.78
2022-08-11T10:18:26.631Z,101743.56
2022-08-11T10:21:05.877Z,101746.44
2022-08-11T10:24:00.451Z,101735.75
2022-08-11T10:26:52.025Z,101741.56
2022-08-11T10:29:49.495Z,101738.81
2022-08-11T10:32:57.586Z,101730.06
2022-08-11T10:35:32.471Z,101731.59
2022-08-11T10:38:08.983Z,101723.16
2022-08-11T10:40:46.113Z,101714.72
2022-08-11T10:43:59.300Z,101724.03
2022-08-11T10:46:31.016Z,101721.38
2022-08-11T10:49:02.867Z,101727.19
2022-08-11T10:51:54.064Z,101727.44
2022-08-11T10:54:50.371Z,101730.75
2022-08-11T10:57:41.680Z,101712.13
2022-08-11T11:00:16.311Z,101723.34
2022-08-11T11:03:22.194Z,101723.09
2022-08-11T11:06:28.836Z,101713.03
2022-08-11T11:08:52.736Z,101708.19
2022-08-11T11:11:47.148Z,101707.00
2022-08-11T11:14:46.105Z,101695.31
2022-08-11T11:17:56.229Z,101678.03
2022-08-11T11:20:40.758Z,101707.03
2022-08-11T11:23:17.067Z,101706.53
2022-08-11T11:26:06.706Z,101675.44
2022-08-11T11:28:55.458Z,101689.06
2022-08-11T11:31:58.439Z,101702.09
2022-08-11T11:35:08.927Z,101701.53
2022-08-11T11:38:01.904Z,101695.66
2022-08-11T11:40:37.453Z,101692.34
2022-08-11T11:43:09.474Z,101693.94
2022-08-11T11:45:42.121Z,101686.84
2022-08-11T11:48:13.756Z,101691.72
2022-08-11T11:50:45.314Z,101701.09
2022-08-11T11:53:16.869Z,101686.47
2022-08-11T11:55:48.645Z,101692.09
2022-08-11T11:58:40.104Z,101691.69
2022-08-11T12:01:16.098Z,101686.75
2022-08-11T12:03:50.758Z,101683.13
2022-08-11T12:06:24.108Z,101678.38
2022-08-11T12:08:58.564Z,101674.03
2022-08-11T12:11:49.837Z,101670.13
2022-08-11T12:14:21.801Z,101677.53
2022-08-11T12:16:56.269Z,101672.91
2022-08-11T12:19:28.922Z,101677.88
2022-08-11T12:22:26.341Z,101677.91
2022-08-11T12:25:16.101Z,101678.81
2022-08-11T12:27:47.713Z,101679.69
2022-08-11T12:30:19.324Z,101688.09
2022-08-11T12:32:51.770Z,101662.94
2022-08-11T12:35:23.246Z,101666.72
2022-08-11T12:38:04.909Z,101663.84
2022-08-11T12:41:16.832Z,101663.00
2022-08-11T12:44:08.227Z,101658.38
2022-08-11T12:46:44.549Z,101658.09
2022-08-11T12:49:43.202Z,101654.75
2022-08-11T12:52:26.208Z,101653.75
2022-08-11T12:55:06.622Z,101639.56
2022-08-11T12:58:06.885Z,101636.09
2022-08-11T13:00:57.334Z,101641.41
2022-08-11T13:03:52.478Z,101634.63
2022-08-11T13:06:29.003Z,101628.69
2022-08-11T13:09:01.651Z,101620.03
2022-08-11T13:11:55.893Z,101624.81
2022-08-11T13:14:32.854Z,101620.19
2022-08-11T13:17:43.775Z,101625.97
2022-08-11T13:20:20.040Z,101612.09
2022-08-11T13:22:53.872Z,101614.69
2022-08-11T13:25:31.593Z,101608.06
2022-08-11T13:28:04.781Z,101611.38
2022-08-11T13:30:55.571Z,101601.69
2022-08-11T13:33:27.009Z,101603.22
2022-08-11T13:36:01.366Z,101603.38
2022-08-11T13:38:33.907Z,101598.47
2022-08-11T13:41:28.427Z,101599.66
2022-08-11T13:44:02.656Z,101611.66
2022-08-11T13:46:34.872Z,101599.34
2022-08-11T13:49:10.851Z,101599.66
2022-08-11T13:51:43.415Z,101601.69
2022-08-11T13:54:36.815Z,101591.44
2022-08-11T13:57:13.596Z,101585.81
2022-08-11T14:00:23.378Z,101561.09
2022-08-11T14:02:58.169Z,101589.84
2022-08-11T14:05:37.669Z,101570.50
2022-08-11T14:08:38.096Z,101571.22
2022-08-11T14:12:22.060Z,101582.63
2022-08-11T14:14:25.247Z,101582.63
2022-08-11T14:16:57.932Z,101575.41
2022-08-11T14:19:32.761Z,101578.00
2022-08-11T14:22:09.199Z,101549.53
2022-08-11T14:24:42.968Z,101570.50
2022-08-11T14:28:30.519Z,101566.72
2022-08-11T14:30:26.583Z,101567.16
2022-08-11T14:32:59.896Z,101553.56
2022-08-11T14:35:31.515Z,101538.84
2022-08-11T14:38:05.386Z,101560.09
2022-08-11T14:40:56.557Z,101566.72
2022-08-11T14:44:05.848Z,101552.41
2022-08-11T14:46:57.861Z,101541.44
2022-08-11T14:49:30.194Z,101542.75
2022-08-11T14:52:06.625Z,101539.56
2022-08-11T14:54:56.730Z,101548.22
2022-08-11T14:57:55.408Z,101551.13
2022-08-11T15:00:22.623Z,101547.94
2022-08-11T15:03:10.325Z,101529.44
2022-08-11T15:05:57.555Z,101533.06
2022-08-11T15:08:52.113Z,101542.88
2022-08-11T15:11:44.726Z,101545.06
2022-08-11T15:14:36.347Z,101532.06
2022-08-11T15:17:10.074Z,101519.00
2022-08-11T15:20:04.061Z,101504.41
2022-08-11T15:22:54.298Z,101527.44
2022-08-11T15:25:27.429Z,101515.28
2022-08-11T15:28:18.667Z,101516.72
2022-08-11T15:31:14.089Z,101515.28
2022-08-11T15:34:06.228Z,101508.34
2022-08-11T15:36:57.641Z,101518.03
2022-08-11T15:39:35.651Z,101513.84
2022-08-11T15:42:35.810Z,101510.63
2022-08-11T15:45:27.914Z,101501.25
2022-08-11T15:48:10.684Z,101502.81
2022-08-11T15:50:48.403Z,101500.66
2022-08-11T15:53:27.127Z,101495.75
2022-08-11T15:56:00.977Z,101489.53
2022-08-11T15:59:33.657Z,101498.63
2022-08-11T16:02:07.795Z,101499.94
2022-08-11T16:04:42.565Z,101486.06
2022-08-11T16:07:26.715Z,101468.88
2022-08-11T16:10:09.614Z,101472.91
2022-08-11T16:13:09.963Z,101463.84
2022-08-11T16:16:05.981Z,101487.78
2022-08-11T16:18:52.078Z,101485.31
2022-08-11T16:21:35.027Z,101480.53
2022-08-11T16:25:58.274Z,101477.31
2022-08-11T16:27:12.926Z,101471.66
2022-08-11T16:29:47.854Z,101472.94
2022-08-11T16:32:23.137Z,101477.25
2022-08-11T16:35:17.461Z,101479.41
2022-08-11T16:38:10.702Z,101480.47
2022-08-11T16:40:43.905Z,101470.19
2022-08-11T16:43:36.955Z,101470.47
2022-08-11T16:46:38.343Z,101462.06
2022-08-11T16:49:18.109Z,101455.13
2022-08-11T16:51:49.456Z,101468.69
2022-08-11T16:54:21.003Z,101458.41
2022-08-11T16:56:54.057Z,101431.53
2022-08-11T16:59:36.141Z,101451.31
2022-08-11T17:02:35.741Z,101437.97
2022-08-11T17:05:30.449Z,101450.66
2022-08-11T17:08:24.298Z,101452.91
2022-08-11T17:11:18.928Z,101429.88
2022-08-11T17:13:54.819Z,101457.84
2022-08-11T17:16:34.214Z,101448.56
2022-08-11T17:20:38.264Z,101447.75
2022-08-11T17:22:37.234Z,101444.47
2022-08-11T17:25:10.154Z,101418.44
2022-08-11T17:27:43.472Z,101446.38
2022-08-11T17:30:15.649Z,101429.69
2022-08-11T17:33:09.289Z,101453.75
2022-08-11T17:35:44.405Z,101448.34
2022-08-11T17:38:19.340Z,101441.03
2022-08-11T17:41:23.027Z,101439.94
2022-08-11T17:44:15.265Z,101443.38
2022-08-11T17:47:07.503Z,101442.41
2022-08-11T17:49:40.307Z,101421.69
2022-08-11T17:52:35.227Z,101412.25
2022-08-11T17:55:52.530Z,101438.94
2022-08-11T17:58:37.980Z,101448.75
2022-08-11T18:01:11.602Z,101448.50
2022-08-11T18:03:56.463Z,101423.28
2022-08-11T18:06:34.174Z,101444.63
2022-08-11T18:09:30.809Z,101449.69
2022-08-11T18:12:24.568Z,101456.84
2022-08-11T18:15:15.980Z,101448.88
2022-08-11T18:18:06.910Z,101455.91
2022-08-11T18:20:56.804Z,101452.25
2022-08-11T18:23:47.466Z,101462.88
2022-08-11T18:26:41.194Z,101459.69
2022-08-11T18:29:41.914Z,101461.34
2022-08-11T18:32:49.166Z,101467.75
2022-08-11T18:35:41.441Z,101463.41
2022-08-11T18:38:35.504Z,101440.72
2022-08-11T18:41:28.565Z,101475.66
2022-08-11T18:44:23.489Z,101476.56
2022-08-11T18:47:15.473Z,101470.38
2022-08-11T18:50:11.941Z,101465.97
2022-08-11T18:53:09.619Z,101475.66
2022-08-11T18:56:02.812Z,101472.84
2022-08-11T18:58:55.650Z,101482.75
2022-08-11T19:01:47.200Z,101482.84
2022-08-11T19:04:38.190Z,101472.34
2022-08-11T19:07:31.234Z,101485.56
2022-08-11T19:10:23.072Z,101488.34
2022-08-11T19:13:14.475Z,101485.03
2022-08-11T19:16:05.947Z,101482.34
2022-08-11T19:18:58.029Z,101478.13
2022-08-11T19:21:49.088Z,101485.88
2022-08-11T19:24:40.198Z,101486.88
2022-08-11T19:27:32.580Z,101474.88
2022-08-11T19:30:23.056Z,101491.53
2022-08-11T19:33:13.321Z,101490.47
2022-08-11T19:36:05.203Z,101487.56
2022-08-11T19:38:56.664Z,101491.88
2022-08-11T19:41:56.132Z,101497.00
2022-08-11T19:44:49.238Z,101492.41
2022-08-11T19:47:40.513Z,101498.16
2022-08-11T19:50:32.246Z,101493.38
2022-08-11T19:53:24.551Z,101497.13
2022-08-11T19:56:15.035Z,101468.75
2022-08-11T19:59:05.820Z,101495.25
2022-08-11T20:02:12.843Z,101500.84
2022-08-11T20:05:04.338Z,101499.69
2022-08-11T20:07:56.182Z,101492.91
2022-08-11T20:10:49.312Z,101501.47
2022-08-11T20:13:41.643Z,101497.63
2022-08-11T20:16:34.532Z,101499.91
2022-08-11T20:19:54.977Z,101505.84
2022-08-11T20:22:37.444Z,101510.13
2022-08-11T20:25:29.512Z,101511.53
2022-08-11T20:28:21.777Z,101523.56
2022-08-11T20:31:12.699Z,101516.72
2022-08-11T20:34:04.130Z,101513.25
2022-08-11T20:36:58.173Z,101511.56
2022-08-11T20:39:50.856Z,101512.69
2022-08-11T20:42:42.677Z,101510.25
2022-08-11T20:45:34.376Z,101511.63
2022-08-11T20:48:25.984Z,101519.66
2022-08-11T20:51:17.373Z,101518.94
2022-08-11T20:54:08.434Z,101510.22
2022-08-11T20:57:02.288Z,101485.44
2022-08-11T20:59:56.960Z,101511.91
2022-08-11T21:02:50.076Z,101515.81
2022-08-11T21:06:10.177Z,101521.38
2022-08-11T21:08:56.253Z,101481.31
2022-08-11T21:11:47.455Z,101512.09
2022-08-11T21:14:40.702Z,101521.25
2022-08-11T21:17:37.360Z,101513.41
2022-08-11T21:20:50.215Z,101516.50
2022-08-11T21:23:41.801Z,101510.81
2022-08-11T21:26:36.970Z,101519.88
2022-08-11T21:29:28.720Z,101521.22
2022-08-11T21:32:19.599Z,101533.13
2022-08-11T21:35:10.962Z,101516.59
2022-08-11T21:38:02.365Z,101519.28
2022-08-11T21:41:00.718Z,101520.56
2022-08-11T21:43:51.902Z,101522.59
2022-08-11T21:46:42.570Z,101525.63
2022-08-11T21:49:33.801Z,101521.31
2022-08-11T21:52:24.593Z,101519.88
2022-08-11T21:55:16.453Z,101528.22
2022-08-11T21:58:06.781Z,101529.63
2022-08-11T22:00:57.124Z,101527.38
2022-08-11T22:03:50.233Z,101533.72
2022-08-11T22:06:41.136Z,101531.44
2022-08-11T22:09:31.133Z,101534.44
2022-08-11T22:12:29.497Z,101528.50
2022-08-11T22:15:26.231Z,101516.31
2022-08-11T22:18:20.558Z,101521.84
2022-08-11T22:21:11.422Z,101522.13
2022-08-11T22:24:09.037Z,101520.59
2022-08-11T22:26:59.794Z,101537.78
2022-08-11T22:29:51.466Z,101536.25
2022-08-11T22:32:41.849Z,101531.94
2022-08-11T22:35:32.308Z,101525.91
2022-08-11T22:38:23.127Z,101521.59
2022-08-11T22:41:13.964Z,101489.28
2022-08-11T22:44:04.045Z,101494.13
2022-08-11T22:46:54.905Z,101486.19
2022-08-11T22:49:57.214Z,101490.75
2022-08-11T22:52:49.827Z,101526.00
2022-08-11T22:55:41.567Z,101520.13
2022-08-11T22:58:33.877Z,101513.19
2022-08-11T23:01:24.635Z,101519.59
2022-08-11T23:04:15.262Z,101534.69
2022-08-11T23:07:06.816Z,101500.69
2022-08-11T23:09:59.174Z,101530.50
2022-08-11T23:12:49.293Z,101495.63
2022-08-11T23:15:40.837Z,101519.53
2022-08-11T23:18:32.745Z,101531.69
2022-08-11T23:21:22.782Z,101536.16
2022-08-11T23:24:12.925Z,101521.19
2022-08-11T23:27:03.683Z,101530.16
2022-08-11T23:29:54.380Z,101525.81
2022-08-11T23:32:45.947Z,101522.22
2022-08-11T23:35:53.986Z,101523.22
2022-08-11T23:38:47.258Z,101534.13
2022-08-11T23:41:37.779Z,101491.06
2022-08-11T23:44:28.379Z,101495.69
2022-08-11T23:47:19.698Z,101520.38
2022-08-11T23:50:10.598Z,101509.22
2022-08-11T23:53:06.708Z,101493.63
2022-08-11T23:55:56.928Z,101515.59
2022-08-11T23:58:47.150Z,101500.00
